Time;durP1;ratioP1;P1;durP2;ratioP2;P2;SDS_P1;SDS_P2;PMS_P1;PMS_P2;Temp;Humidity;BMP_temperature;BMP_pressure;BME280_temperature;BME280_humidity;BME280_pressure;Samples;Min_cycle;Max_cycle;Signal;HPM_P1;HPM_P2
2021/06/26 00:25:39;;;;;;;;;;;;;;;;;;;;;
2021/06/26 00:43:51;;;;;;;;;;;;;;;;;;;;;
2021/06/26 06:04:28;;;;;;;;;7.67;7.67;;;;;17.87;74.75;101437.47;6210081;22;46510;-88
2021/06/26 06:06:53;;;;;;;;;6.67;6.00;;;;;17.83;74.48;101428.59;6289730;22;45299;-93
2021/06/26 06:09:19;;;;;;;;;8.67;8.00;;;;;17.91;74.59;101433.94;6281301;22;45287;-90
2021/06/26 06:11:45;;;;;;;;;8.33;8.00;;;;;17.89;75.03;101428.63;6281406;22;45349;-90
2021/06/26 06:14:13;;;;;;;;;9.00;9.00;;;;;17.95;74.91;101438.34;6280577;22;46846;-90
2021/06/26 06:16:39;;;;;;;;;9.00;8.00;;;;;17.92;74.81;101431.25;6308628;22;45369;-91
2021/06/26 06:19:04;;;;;;;;;8.00;7.67;;;;;17.99;74.99;101445.44;6280368;22;45679;-90
2021/06/26 06:21:30;;;;;;;;;7.00;7.00;;;;;17.98;74.80;101440.13;6281346;22;45289;-90
2021/06/26 06:23:55;;;;;;;;;7.33;7.33;;;;;18.09;74.62;101456.03;6308645;22;45373;-91
2021/06/26 06:26:21;;;;;;;;;7.67;7.67;;;;;18.04;74.67;101445.44;6308821;22;45330;-91
2021/06/26 06:28:46;;;;;;;;;5.67;5.67;;;;;18.05;74.64;101447.19;6309306;22;45400;-91
2021/06/26 06:31:13;;;;;;;;;4.00;4.00;;;;;18.01;74.83;101435.69;6291264;22;45352;-89
2021/06/26 06:33:40;;;;;;;;;4.67;4.67;;;;;18.06;74.58;101443.66;6294920;22;47240;-89
2021/06/26 06:36:07;;;;;;;;;4.67;4.67;;;;;18.09;74.10;101442.72;6316684;22;45361;-90
2021/06/26 06:38:42;;;;;;;;;4.33;4.33;;;;;18.06;74.43;101435.66;6308905;22;45256;-90
2021/06/26 06:41:08;;;;;;;;;5.33;5.33;;;;;18.13;74.71;101436.50;6285320;22;45339;-90
2021/06/26 06:43:33;;;;;;;;;8.33;4.67;;;;;18.09;75.01;101430.31;6288427;22;47564;-91
2021/06/26 06:45:59;;;;;;;;;5.33;5.33;;;;;18.23;75.01;101450.72;6317679;22;45405;-92
2021/06/26 06:48:25;;;;;;;;;5.00;5.00;;;;;18.17;74.41;101435.66;6294530;22;45268;-90
2021/06/26 06:50:50;;;;;;;;;6.67;5.00;;;;;18.28;74.68;101455.13;6313451;22;45388;-88
2021/06/26 06:53:16;;;;;;;;;7.00;7.00;;;;;18.31;74.34;101454.25;6309980;22;45279;-90
2021/06/26 06:55:41;;;;;;;;;6.00;6.00;;;;;18.32;74.23;101456.00;6309954;22;45326;-87
2021/06/26 06:58:06;;;;;;;;;5.67;5.67;;;;;18.22;73.94;101447.19;6308030;22;45377;-85
2021/06/26 07:00:32;;;;;;;;;6.00;6.00;;;;;18.27;73.19;101457.81;6307805;22;45287;-85
2021/06/26 07:02:57;;;;;;;;;7.00;7.00;;;;;18.30;73.64;101465.78;6307668;22;45397;-88
2021/06/26 07:05:22;;;;;;;;;7.33;6.00;;;;;18.30;73.91;101467.56;6287736;22;45331;-86
2021/06/26 07:07:48;;;;;;;;;6.67;6.67;;;;;18.28;73.64;101459.56;6274887;22;45766;-89
2021/06/26 07:10:13;;;;;;;;;9.00;5.33;;;;;18.26;73.83;101470.22;6276055;22;45319;-85
2021/06/26 07:12:39;;;;;;;;;5.00;5.00;;;;;18.27;73.88;101468.47;6276824;22;45848;-89
2021/06/26 07:15:05;;;;;;;;;7.33;6.00;;;;;18.27;73.22;101474.66;6249024;22;45286;-87
2021/06/26 07:17:31;;;;;;;;;6.67;6.33;;;;;18.25;73.51;101470.25;6276810;22;45332;-85
2021/06/26 07:19:56;;;;;;;;;6.67;6.67;;;;;18.25;73.73;101475.56;6277113;22;45145;-85
2021/06/26 07:22:22;;;;;;;;;6.33;6.33;;;;;18.22;73.41;101475.56;6248360;22;47218;-88
2021/06/26 07:24:47;;;;;;;;;8.00;7.67;;;;;18.24;73.47;101476.44;6276176;22;45266;-88
2021/06/26 07:27:13;;;;;;;;;8.67;7.33;;;;;18.23;73.39;101474.69;6276608;22;45784;-88
2021/06/26 07:29:38;;;;;;;;;9.67;9.67;;;;;18.21;73.44;101474.66;6277203;22;45373;-88
2021/06/26 07:32:04;;;;;;;;;7.33;6.00;;;;;18.24;73.41;101476.44;6276035;22;45703;-87
2021/06/26 07:34:30;;;;;;;;;6.67;6.67;;;;;18.22;73.68;101475.56;6276372;22;45368;-85
2021/06/26 07:36:58;;;;;;;;;7.00;7.00;;;;;18.19;73.56;101476.44;6276293;22;45308;-91
2021/06/26 07:39:23;;;;;;;;;7.67;7.67;;;;;18.25;73.76;101481.75;6249521;22;45574;-91
2021/06/26 07:41:49;;;;;;;;;10.00;8.00;;;;;18.12;73.89;101454.28;6274969;22;46894;-91
2021/06/26 07:44:22;;;;;;;;;9.33;8.33;;;;;18.19;74.03;101459.63;6249689;22;45256;-89
2021/06/26 07:46:47;;;;;;;;;8.67;7.00;;;;;18.21;73.93;101469.34;6249314;22;45451;-90
2021/06/26 07:49:15;;;;;;;;;9.33;7.67;;;;;18.13;74.17;101453.38;6277119;22;45345;-90
2021/06/26 07:51:40;;;;;;;;;10.00;9.00;;;;;18.27;73.86;101471.13;6276464;22;45418;-90
2021/06/26 07:54:06;;;;;;;;;7.67;7.67;;;;;18.21;74.09;101463.16;6248896;22;45443;-90
2021/06/26 07:56:34;;;;;;;;;8.67;7.00;;;;;18.28;74.20;101475.53;6249377;22;45214;-90
2021/06/26 07:59:02;;;;;;;;;6.00;5.67;;;;;18.13;74.34;101450.72;6249957;22;45205;-90
2021/06/26 08:01:27;;;;;;;;;7.33;7.33;;;;;18.28;74.18;101470.22;6249144;22;47959;-92
2021/06/26 08:03:53;;;;;;;;;10.00;7.67;;;;;18.30;74.61;101457.78;6249644;22;45388;-91
2021/06/26 08:06:18;;;;;;;;;7.00;6.00;;;;;18.27;74.34;101449.84;6248957;22;45271;-90
2021/06/26 08:08:44;;;;;;;;;5.67;5.67;;;;;18.21;74.39;101437.41;6276867;22;45320;-91
2021/06/26 08:11:09;;;;;;;;;6.00;4.00;;;;;18.30;74.06;101447.13;6274619;22;46191;-90
2021/06/26 08:13:37;;;;;;;;;4.67;4.67;;;;;18.30;74.19;101446.28;6276809;22;45246;-91
2021/06/26 08:16:03;;;;;;;;;11.33;9.00;;;;;18.30;74.47;101441.81;6276861;22;45201;-90
2021/06/26 08:18:30;;;;;;;;;5.33;4.67;;;;;18.32;74.40;101440.03;6276503;22;45134;-90
2021/06/26 08:20:56;;;;;;;;;5.00;5.00;;;;;18.35;74.11;101439.16;6249149;22;47227;-90
2021/06/26 08:23:21;;;;;;;;;6.00;5.33;;;;;18.39;74.47;101435.59;6249572;22;45273;-90
2021/06/26 08:25:47;;;;;;;;;8.00;5.33;;;;;18.38;74.66;101417.84;6277648;22;45314;-91
2021/06/26 08:28:12;;;;;;;;;7.33;7.00;;;;;18.46;74.85;101421.38;6278389;22;45303;-89
2021/06/26 08:30:37;;;;;;;;;6.33;6.33;;;;;18.47;74.01;101424.88;6278648;22;46005;-89
2021/06/26 08:33:04;;;;;;;;;6.67;6.33;;;;;18.62;74.41;101435.47;6252342;22;45334;-90
2021/06/26 08:35:29;;;;;;;;;6.67;6.67;;;;;18.66;74.55;101441.66;6279291;22;45131;-89
2021/06/26 08:37:55;;;;;;;;;7.33;6.33;;;;;18.69;74.10;101439.00;6276762;22;45264;-91
2021/06/26 08:40:21;;;;;;;;;8.67;8.00;;;;;18.75;74.07;101448.72;6277992;22;45977;-90
2021/06/26 08:42:47;;;;;;;;;5.33;5.33;;;;;18.73;73.00;101440.75;6277549;22;45095;-89
2021/06/26 08:45:17;;;;;;;;;4.00;4.00;;;;;18.70;73.13;101438.09;6249661;22;45112;-90
2021/06/26 08:47:45;;;;;;;;;4.00;4.00;;;;;18.73;73.37;101446.09;6280139;22;45366;-89
2021/06/26 08:50:11;;;;;;;;;6.67;6.67;;;;;18.82;73.12;101465.56;6276491;22;45647;-88
2021/06/26 08:52:36;;;;;;;;;6.67;6.00;;;;;18.75;72.77;101460.28;6277555;22;45220;-91
2021/06/26 08:55:03;;;;;;;;;5.00;5.00;;;;;18.70;73.18;101450.50;6250207;22;45182;-91
2021/06/26 08:57:39;;;;;;;;;7.00;5.33;;;;;18.85;72.97;101470.88;6251172;22;45342;-91
2021/06/26 09:00:29;;;;;;;;;7.33;7.00;;;;;18.85;73.31;101469.09;6251032;22;47247;-91
2021/06/26 09:03:24;;;;;;;;;6.33;5.33;;;;;18.88;72.56;101459.31;6252143;22;45431;-91
2021/06/26 09:05:50;;;;;;;;;6.33;5.67;;;;;18.81;72.95;101440.69;6126693;23;45409;-90
2021/06/26 09:08:19;;;;;;;;;7.00;5.33;;;;;18.83;73.75;101436.25;6126999;23;45191;-90
2021/06/26 09:10:50;;;;;;;;;6.00;6.00;;;;;18.91;73.52;101443.31;6101519;23;47219;-91
2021/06/26 09:13:23;;;;;;;;;8.00;6.67;;;;;18.98;73.42;101450.38;6127723;23;45299;-91
2021/06/26 09:15:50;;;;;;;;;6.67;6.67;;;;;18.92;72.92;101434.44;6070543;23;45305;-90
2021/06/26 09:18:20;;;;;;;;;7.00;6.00;;;;;19.04;73.22;101445.00;6061076;23;45672;-91
2021/06/26 09:20:53;;;;;;;;;9.67;7.67;;;;;18.98;72.50;101429.94;6063578;23;47829;-90
2021/06/26 09:23:33;;;;;;;;;8.00;7.33;;;;;19.07;72.86;101434.34;6085807;23;44828;-90
2021/06/26 09:26:10;;;;;;;;;7.00;7.00;;;;;19.18;72.84;101450.28;6080400;23;45323;-91
2021/06/26 09:28:37;;;;;;;;;8.00;8.00;;;;;19.23;72.85;101444.03;6044391;23;45372;-90
2021/06/26 09:31:04;;;;;;;;;8.00;6.33;;;;;19.27;73.45;101435.97;6044530;23;47372;-90
2021/06/26 09:33:29;;;;;;;;;7.00;7.00;;;;;19.26;72.42;101412.91;6041717;23;45443;-90
2021/06/26 09:36:06;;;;;;;;;7.67;6.00;;;;;19.32;72.43;101414.63;6041323;23;45390;-90
2021/06/26 09:38:33;;;;;;;;;10.33;8.00;;;;;19.45;72.71;101423.41;6065141;23;45365;-91
2021/06/26 09:41:11;;;;;;;;;9.67;6.67;;;;;19.49;72.20;101424.25;6069012;23;46602;-90
2021/06/26 09:43:38;;;;;;;;;6.33;6.33;;;;;19.61;71.62;101431.25;6186787;23;45157;-91
2021/06/26 09:46:10;;;;;;;;;6.00;6.00;;;;;19.63;71.08;101437.50;6185444;23;45462;-91
2021/06/26 09:49:06;;;;;;;;;;;;;;;;;;;;;
2021/06/26 09:51:35;;;;;;;;;8.00;7.00;;;;;19.76;70.80;101457.78;6182125;23;74411;-91
2021/06/26 09:54:04;;;;;;;;;6.00;6.00;;;;;19.64;69.89;101433.91;6232643;22;45284;-90
2021/06/26 09:56:47;;;;;;;;;9.00;7.00;;;;;19.74;70.10;101448.03;6250242;22;45264;-91
2021/06/26 09:59:17;;;;;;;;;7.33;7.33;;;;;19.65;70.32;101443.69;6250863;22;45401;-90
2021/06/26 10:01:48;;;;;;;;;7.00;6.00;;;;;19.63;69.73;101454.34;6252195;22;47009;-90
2021/06/26 10:04:16;;;;;;;;;5.67;5.33;;;;;19.62;69.84;101451.69;6253921;22;45895;-90
2021/06/26 10:06:43;;;;;;;;;6.00;5.33;;;;;19.67;69.90;101461.44;6254943;22;45226;-91
2021/06/26 10:09:13;;;;;;;;;5.67;5.67;;;;;19.62;70.26;101451.69;6255103;22;45189;-92
2021/06/26 10:11:39;;;;;;;;;8.00;5.00;;;;;19.71;70.47;101459.63;6266935;22;47190;-90
2021/06/26 10:14:08;;;;;;;;;7.67;7.00;;;;;19.72;70.28;101461.38;6302725;22;44618;-91
2021/06/26 10:16:35;;;;;;;;;8.33;8.00;;;;;19.59;70.88;101447.28;6274938;22;44602;-90
2021/06/26 10:19:03;;;;;;;;;6.00;6.00;;;;;19.74;70.21;101462.25;6267077;22;44784;-90
2021/06/26 10:21:30;;;;;;;;;6.00;6.00;;;;;19.71;69.83;101462.31;6277590;22;46954;-90
2021/06/26 10:24:00;;;;;;;;;7.67;7.67;;;;;19.63;70.35;101440.16;6275542;22;45707;-90
2021/06/26 10:26:28;;;;;;;;;10.00;8.00;;;;;19.75;71.31;101452.47;6249906;22;45355;-91
2021/06/26 10:29:02;;;;;;;;;7.00;6.00;;;;;19.65;69.46;101435.69;6250380;22;45387;-91
2021/06/26 10:31:41;;;;;;;;;4.67;4.67;;;;;19.78;70.39;101464.00;6283298;22;46050;-92
2021/06/26 10:34:12;;;;;;;;;6.67;6.67;;;;;19.74;69.37;101440.03;6252209;22;45267;-91
2021/06/26 10:36:39;;;;;;;;;12.33;11.33;;;;;19.80;68.84;101450.63;6250338;22;45459;-89
2021/06/26 10:39:21;;;;;;;;;7.00;6.00;;;;;19.86;68.47;101461.25;6277658;22;45134;-90
2021/06/26 10:42:01;;;;;;;;;13.33;11.00;;;;;19.86;69.58;101463.06;6277056;22;45332;-92
2021/06/26 10:44:46;;;;;;;;;7.00;7.00;;;;;19.94;69.42;101458.53;6276203;22;45268;-91
2021/06/26 10:47:13;;;;;;;;;7.33;6.67;;;;;19.86;69.63;101439.03;6275068;22;45412;-90
2021/06/26 10:49:39;;;;;;;;;9.33;9.00;;;;;19.92;69.43;101455.00;6249700;22;45400;-90
2021/06/26 10:52:08;;;;;;;;;7.33;7.00;;;;;19.98;69.75;101462.03;6248906;22;47541;-91
2021/06/26 10:54:34;;;;;;;;;7.67;7.00;;;;;19.85;69.87;101445.25;6249345;22;45395;-89
2021/06/26 10:57:05;;;;;;;;;6.33;6.33;;;;;19.87;69.68;101441.69;6276843;22;45362;-90
2021/06/26 10:59:33;;;;;;;;;6.67;6.67;;;;;19.90;69.60;101448.78;6275010;22;45446;-90
2021/06/26 11:02:04;;;;;;;;;9.00;7.00;;;;;19.82;69.60;101434.63;6249264;22;47085;-90
2021/06/26 11:04:32;;;;;;;;;8.33;8.33;;;;;19.88;69.61;101438.09;6277067;22;45398;-89
2021/06/26 11:07:08;;;;;;;;;11.00;9.00;;;;;19.96;69.29;101454.06;6251187;22;45398;-89
2021/06/26 11:09:38;;;;;;;;;7.67;7.33;;;;;19.98;69.83;101454.03;6255156;22;45924;-89
2021/06/26 11:12:14;;;;;;;;;10.00;9.33;;;;;19.87;69.32;101419.44;6255000;22;47969;-90
2021/06/26 11:14:53;;;;;;;;;28.33;24.00;;;;;19.97;69.19;101426.47;6282375;22;44755;-89
2021/06/26 11:17:22;;;;;;;;;18.00;16.67;;;;;20.11;69.81;101434.38;6249253;22;45437;-89
2021/06/26 11:19:47;;;;;;;;;12.67;11.00;;;;;20.11;69.75;101421.00;6276811;22;45162;-83
2021/06/26 11:22:14;;;;;;;;;11.33;9.67;;;;;20.27;69.07;101434.16;6274480;22;45533;-83
2021/06/26 11:24:45;;;;;;;;;12.33;11.67;;;;;20.39;69.73;101430.44;6275197;22;45284;-83
2021/06/26 11:27:14;;;;;;;;;11.33;10.33;;;;;20.53;69.71;101418.72;6275224;22;45252;-83
2021/06/26 11:29:45;;;;;;;;;7.33;7.33;;;;;20.63;69.58;101420.34;6275225;22;45280;-84
2021/06/26 11:32:21;;;;;;;;;8.00;8.00;;;;;20.69;67.47;101425.59;6274847;22;46240;-84
2021/06/26 11:35:01;;;;;;;;;8.33;8.00;;;;;20.67;66.90;101418.50;6274752;22;45260;-84
2021/06/26 11:37:39;;;;;;;;;7.67;7.00;;;;;20.68;67.75;101425.63;6274734;22;45387;-86
2021/06/26 11:40:14;;;;;;;;;9.00;8.67;;;;;20.68;67.51;101420.28;6275179;22;45270;-85
2021/06/26 11:42:49;;;;;;;;;11.00;9.00;;;;;20.66;67.51;101414.09;6274234;22;46481;-83
2021/06/26 11:45:16;;;;;;;;;10.33;9.33;;;;;20.73;68.05;101425.59;6274691;22;45274;-83
2021/06/26 11:47:42;;;;;;;;;11.67;11.67;;;;;20.73;67.94;101414.91;6274428;22;45237;-85
2021/06/26 11:50:14;;;;;;;;;13.33;12.67;;;;;20.76;67.95;101417.50;6275898;22;45271;-88
2021/06/26 11:52:40;;;;;;;;;12.33;12.00;;;;;20.72;68.66;101422.03;6281187;22;46393;-88
2021/06/26 11:55:06;;;;;;;;;14.67;12.33;;;;;20.70;68.59;101413.16;6276653;22;45330;-88
2021/06/26 11:57:31;;;;;;;;;12.33;12.33;;;;;20.75;67.56;101415.75;6276231;22;45239;-88
2021/06/26 11:59:56;;;;;;;;;16.33;13.67;;;;;20.77;67.16;101421.97;6275845;22;45355;-88
2021/06/26 12:02:30;;;;;;;;;14.33;14.33;;;;;20.78;67.89;101415.69;6247236;22;47245;-88
2021/06/26 12:04:56;;;;;;;;;17.00;15.00;;;;;20.80;68.31;101424.56;6274752;22;45197;-88
2021/06/26 12:07:33;;;;;;;;;18.67;18.33;;;;;20.86;67.16;101428.94;6274831;22;45906;-88
2021/06/26 12:09:59;;;;;;;;;17.33;14.00;;;;;20.84;67.82;101428.97;6275776;22;45169;-87
2021/06/26 12:12:25;;;;;;;;;16.67;16.67;;;;;20.88;67.51;101435.13;6274130;22;46477;-87
2021/06/26 12:14:50;;;;;;;;;18.67;15.67;;;;;20.89;67.45;101439.59;6275139;22;45320;-87
2021/06/26 12:17:19;;;;;;;;;18.67;17.33;;;;;20.81;67.42;101431.69;6275167;22;45315;-88
2021/06/26 12:19:44;;;;;;;;;17.33;15.33;;;;;20.81;67.10;101424.53;6247066;22;45308;-86
2021/06/26 12:22:09;;;;;;;;;16.67;14.67;;;;;20.94;67.37;101437.72;6246434;22;46551;-87
2021/06/26 12:24:40;;;;;;;;;17.00;15.33;;;;;20.94;67.30;101413.66;6246606;22;45303;-87
2021/06/26 12:27:24;;;;;;;;;19.33;15.67;;;;;21.17;68.15;101432.06;6247017;22;45289;-88
2021/06/26 12:29:55;;;;;;;;;14.00;14.00;;;;;21.25;68.54;101423.03;6246992;22;45420;-87
2021/06/26 12:32:29;;;;;;;;;12.67;12.67;;;;;21.46;68.45;101427.16;6246580;22;46828;-86
2021/06/26 12:34:55;;;;;;;;;13.67;13.00;;;;;21.55;67.79;101407.38;6274392;22;45192;-87
2021/06/26 12:37:35;;;;;;;;;13.33;11.33;;;;;21.68;67.49;101405.34;6274487;22;45331;-86
2021/06/26 12:40:15;;;;;;;;;11.33;11.33;;;;;21.79;66.94;101406.94;6275162;22;45311;-87
2021/06/26 12:43:06;;;;;;;;;17.33;13.00;;;;;21.84;65.94;101406.00;6246455;22;47150;-86
2021/06/26 12:45:38;;;;;;;;;13.33;13.00;;;;;21.83;65.87;101400.59;6273189;22;45429;-86
2021/06/26 12:48:08;;;;;;;;;15.33;11.33;;;;;21.86;65.98;101408.63;6274539;22;45544;-88
2021/06/26 12:51:03;;;;;;;;;12.00;12.00;;;;;21.86;66.43;101404.16;6275104;22;45272;-87
2021/06/26 12:53:34;;;;;;;;;12.00;11.33;;;;;21.85;67.13;101402.38;6274626;22;46104;-86
2021/06/26 12:56:03;;;;;;;;;15.67;13.33;;;;;21.82;66.82;101405.09;6246681;22;45717;-85
2021/06/26 12:58:28;;;;;;;;;18.67;16.67;;;;;21.84;67.35;101406.00;6274694;22;45275;-86
2021/06/26 13:00:56;;;;;;;;;15.33;15.33;;;;;21.86;67.32;101404.16;6273883;22;45323;-87
2021/06/26 13:03:22;;;;;;;;;15.67;15.67;;;;;21.83;67.09;101392.56;6246317;22;47525;-86
2021/06/26 13:05:47;;;;;;;;;20.67;15.67;;;;;21.88;67.11;101392.53;6273305;22;45276;-86
2021/06/26 13:08:13;;;;;;;;;16.67;15.00;;;;;21.91;66.74;101393.38;6248061;22;45254;-86
2021/06/26 13:10:49;;;;;;;;;16.33;16.33;;;;;21.94;67.22;101392.41;6276053;22;45342;-86
2021/06/26 13:13:14;;;;;;;;;15.00;13.33;;;;;21.91;67.01;101385.34;6273454;22;47327;-86
2021/06/26 13:15:39;;;;;;;;;18.67;15.00;;;;;21.95;67.01;101388.84;6275977;22;45228;-85
2021/06/26 13:18:05;;;;;;;;;17.33;16.33;;;;;21.97;66.74;101390.56;6275907;22;45742;-86
2021/06/26 13:20:31;;;;;;;;;16.00;16.00;;;;;21.97;66.81;101389.69;6276279;22;45342;-86
2021/06/26 13:22:57;;;;;;;;;16.00;15.33;;;;;21.94;66.22;101379.91;6275290;22;46286;-86
2021/06/26 13:25:22;;;;;;;;;17.33;15.00;;;;;21.99;66.13;101377.16;6273467;22;46021;-83
2021/06/26 13:27:48;;;;;;;;;16.67;15.33;;;;;22.01;67.05;101375.31;6275735;22;45409;-84
2021/06/26 13:30:16;;;;;;;;;13.67;11.00;;;;;22.00;65.34;101373.53;6275880;22;45383;-84
2021/06/26 13:32:44;;;;;;;;;15.00;14.00;;;;;22.02;65.58;101361.00;6275975;22;45261;-84
2021/06/26 13:35:10;;;;;;;;;13.67;13.00;;;;;22.02;65.87;101347.63;6275369;22;45413;-84
2021/06/26 13:37:35;;;;;;;;;10.67;10.33;;;;;22.05;66.36;101358.28;6275446;22;45366;-85
2021/06/26 13:40:01;;;;;;;;;14.33;13.00;;;;;22.03;66.89;101346.72;6275615;22;45247;-84
2021/06/26 13:42:27;;;;;;;;;12.00;12.00;;;;;22.09;67.00;101346.59;6275907;22;46133;-83
2021/06/26 13:44:52;;;;;;;;;14.67;13.33;;;;;22.17;66.93;101356.25;6276327;22;45410;-83
2021/06/26 13:47:18;;;;;;;;;14.33;14.33;;;;;22.19;67.36;101346.38;6276258;22;45960;-84
2021/06/26 13:49:43;;;;;;;;;13.33;13.00;;;;;22.23;66.93;101341.88;6276206;22;45275;-84
2021/06/26 13:52:09;;;;;;;;;15.67;14.00;;;;;22.26;66.46;101348.03;6275126;22;46076;-84
2021/06/26 13:54:34;;;;;;;;;12.67;12.67;;;;;22.26;66.29;101342.66;6275775;22;45359;-83
2021/06/26 13:57:00;;;;;;;;;15.33;13.67;;;;;22.26;66.38;101334.63;6275801;22;45211;-84
2021/06/26 13:59:25;;;;;;;;;14.00;12.33;;;;;22.32;65.05;101331.81;6275301;22;45376;-84
2021/06/26 14:01:51;;;;;;;;;14.00;13.00;;;;;22.34;62.81;101331.78;6247401;22;45851;-84
2021/06/26 14:04:16;;;;;;;;;13.33;13.00;;;;;22.36;62.38;101337.97;6275317;22;45267;-83
2021/06/26 14:06:42;;;;;;;;;14.33;12.67;;;;;22.34;63.90;101331.78;6247755;22;45288;-83
2021/06/26 14:09:07;;;;;;;;;13.00;13.00;;;;;22.37;65.10;101339.75;6275785;22;45227;-83
2021/06/26 14:11:34;;;;;;;;;14.33;14.33;;;;;22.41;66.33;101336.09;6273476;22;45789;-83
2021/06/26 14:14:00;;;;;;;;;15.00;15.00;;;;;22.44;65.74;101329.78;6275292;22;45329;-83
2021/06/26 14:16:25;;;;;;;;;15.00;13.33;;;;;22.44;65.53;101322.63;6275190;22;45304;-89
2021/06/26 14:18:51;;;;;;;;;15.33;13.33;;;;;22.36;64.94;101304.97;6248892;22;45448;-90
2021/06/26 14:21:17;;;;;;;;;15.33;14.00;;;;;22.43;65.58;101315.50;6247710;22;45645;-89
2021/06/26 14:23:42;;;;;;;;;13.00;13.00;;;;;22.41;65.87;101295.03;6276623;22;45201;-89
2021/06/26 14:26:08;;;;;;;;;12.00;12.00;;;;;22.43;66.47;101296.75;6248539;22;45332;-88
2021/06/26 14:28:34;;;;;;;;;13.67;12.00;;;;;22.52;64.03;101300.13;6277044;22;45333;-88
2021/06/26 14:31:00;;;;;;;;;16.67;11.67;;;;;22.52;64.90;101303.69;6248202;22;47134;-88
2021/06/26 14:33:25;;;;;;;;;13.67;13.33;;;;;22.48;65.40;101299.34;6276301;22;45252;-88
2021/06/26 14:35:50;;;;;;;;;15.00;14.33;;;;;22.49;65.74;101294.84;6273933;22;45712;-88
2021/06/26 14:38:16;;;;;;;;;12.00;12.00;;;;;22.48;66.86;101283.25;6276345;22;45205;-88
2021/06/26 14:40:42;;;;;;;;;14.33;14.33;;;;;22.59;65.95;101295.50;6275959;22;45336;-91
2021/06/26 14:43:08;;;;;;;;;12.33;11.00;;;;;22.56;66.23;101286.63;6277450;22;45176;-90
2021/06/26 14:45:34;;;;;;;;;16.00;13.00;;;;;22.58;65.68;101294.63;6277229;22;45086;-91
2021/06/26 14:47:59;;;;;;;;;17.33;13.00;;;;;22.58;65.63;101291.06;6249299;22;45402;-92
2021/06/26 14:50:25;;;;;;;;;18.33;14.33;;;;;22.55;64.98;101287.53;6282271;22;46185;-88
2021/06/26 14:52:50;;;;;;;;;14.00;12.67;;;;;22.42;65.57;101261.97;6295841;22;45263;-89
2021/06/26 14:55:16;;;;;;;;;14.00;12.00;;;;;22.50;65.77;101269.81;6291887;22;45654;-91
2021/06/26 14:57:43;;;;;;;;;14.67;13.67;;;;;22.47;66.09;101260.06;6277132;22;45328;-90
2021/06/26 15:00:09;;;;;;;;;15.67;12.00;;;;;22.44;66.13;101236.91;6277314;22;45501;-89
2021/06/26 15:02:36;;;;;;;;;15.67;14.33;;;;;22.41;66.55;101239.66;6276954;22;45228;-91
2021/06/26 15:05:02;;;;;;;;;14.67;14.00;;;;;22.42;66.26;101236.06;6278434;22;45304;-91
2021/06/26 15:07:28;;;;;;;;;20.00;16.00;;;;;22.55;66.76;101263.44;6254148;22;45475;-90
2021/06/26 15:09:53;;;;;;;;;21.67;20.33;;;;;22.52;66.66;101246.56;6282564;22;45166;-90
2021/06/26 15:12:19;;;;;;;;;19.00;16.00;;;;;22.57;66.35;101249.97;6285463;22;45280;-89
2021/06/26 15:14:44;;;;;;;;;15.67;15.33;;;;;22.49;66.38;101236.78;6287650;22;45603;-88
2021/06/26 15:17:10;;;;;;;;;16.67;15.00;;;;;22.50;66.84;101238.56;6291277;22;45283;-89
2021/06/26 15:19:36;;;;;;;;;18.00;16.67;;;;;22.57;66.54;101249.97;6294426;22;45116;-89
2021/06/26 15:22:02;;;;;;;;;17.33;17.00;;;;;22.47;66.49;101218.97;6293955;22;45351;-90
2021/06/26 15:24:29;;;;;;;;;14.33;13.33;;;;;22.52;66.23;101222.44;6286376;22;45401;-91
2021/06/26 15:26:55;;;;;;;;;15.00;15.00;;;;;22.56;66.89;101229.50;6283571;22;45290;-90
2021/06/26 15:29:20;;;;;;;;;12.67;11.00;;;;;22.47;67.44;101217.19;6283797;22;45348;-90
2021/06/26 15:31:45;;;;;;;;;12.00;12.00;;;;;22.47;66.65;101214.53;6283330;22;45214;-89
2021/06/26 15:34:11;;;;;;;;;17.00;14.67;;;;;22.47;66.98;101216.31;6278581;22;46010;-89
2021/06/26 15:36:40;;;;;;;;;13.00;11.33;;;;;22.58;65.15;101235.69;6255609;22;45142;-90
2021/06/26 15:39:09;;;;;;;;;14.00;12.33;;;;;22.58;65.79;101234.78;6281702;22;45531;-92
2021/06/26 15:41:35;;;;;;;;;12.00;11.00;;;;;22.49;66.17;101225.19;6280403;22;45224;-90
2021/06/26 15:44:01;;;;;;;;;12.67;12.00;;;;;22.41;65.94;101212.00;6281230;22;45321;-90
2021/06/26 15:46:26;;;;;;;;;13.67;11.00;;;;;22.58;66.34;101234.78;6277927;22;45229;-92
2021/06/26 15:48:52;;;;;;;;;15.00;12.00;;;;;22.52;66.57;101228.69;6276796;22;45248;-89
2021/06/26 15:51:17;;;;;;;;;14.00;11.33;;;;;22.52;66.60;101228.69;6277615;22;45263;-91
2021/06/26 15:53:43;;;;;;;;;13.67;11.33;;;;;22.47;66.56;101210.94;6276594;22;45160;-90
2021/06/26 15:56:08;;;;;;;;;17.33;12.00;;;;;22.50;66.39;101211.78;6249521;22;45241;-90
2021/06/26 15:58:34;;;;;;;;;14.67;13.00;;;;;22.43;66.54;101203.00;6290183;22;45166;-87
2021/06/26 16:01:01;;;;;;;;;14.00;14.00;;;;;22.50;67.11;101213.56;6295036;22;44767;-88
2021/06/26 16:03:27;;;;;;;;;17.00;14.33;;;;;22.52;67.12;101220.66;6292257;22;45268;-89
2021/06/26 16:05:52;;;;;;;;;15.00;15.00;;;;;22.42;67.51;101193.19;6260432;22;45482;-88
2021/06/26 16:08:18;;;;;;;;;13.00;13.00;;;;;22.45;66.94;101213.69;6259193;22;46924;-89
2021/06/26 16:10:44;;;;;;;;;15.33;13.00;;;;;22.42;66.54;101197.69;6254426;22;45250;-89
2021/06/26 16:13:09;;;;;;;;;17.00;14.00;;;;;22.40;66.59;101195.03;6291073;22;45378;-89
2021/06/26 16:15:35;;;;;;;;;13.67;13.33;;;;;22.41;66.80;101191.44;6300483;22;44796;-89
2021/06/26 16:18:00;;;;;;;;;15.00;13.00;;;;;22.48;66.70;101202.91;6273784;22;46991;-88
2021/06/26 16:20:26;;;;;;;;;14.33;12.33;;;;;22.35;66.69;101175.53;6294990;22;45346;-90
2021/06/26 16:22:52;;;;;;;;;15.33;14.33;;;;;22.37;67.36;101175.50;6288548;22;45224;-88
2021/06/26 16:25:17;;;;;;;;;14.00;13.00;;;;;22.36;67.71;101173.75;6285550;22;45237;-89
2021/06/26 16:27:44;;;;;;;;;13.50;13.00;;;;;22.41;67.35;101185.22;6279922;22;45588;-88
2021/06/26 16:30:11;;;;;;;;;15.33;14.00;;;;;22.40;67.21;101178.09;6276660;22;45667;-88
2021/06/26 16:32:38;;;;;;;;;12.67;12.67;;;;;22.41;67.21;101179.84;6277578;22;45402;-87
2021/06/26 16:35:06;;;;;;;;;15.33;15.00;;;;;22.50;67.38;101194.81;6275997;22;45332;-88
2021/06/26 16:37:38;;;;;;;;;14.00;14.00;;;;;22.44;67.31;101186.00;6276833;22;45362;-91
2021/06/26 16:40:05;;;;;;;;;15.00;12.67;;;;;22.48;66.91;101192.19;6277526;22;45336;-90
2021/06/26 16:42:30;;;;;;;;;13.67;13.33;;;;;22.35;67.39;101166.63;6276933;22;45299;-89
2021/06/26 16:44:56;;;;;;;;;14.00;13.67;;;;;22.45;66.97;101184.22;6257298;22;45197;-90
2021/06/26 16:47:21;;;;;;;;;13.33;11.33;;;;;22.35;67.24;101175.53;6283449;22;45265;-89
2021/06/26 16:49:47;;;;;;;;;13.00;11.67;;;;;22.35;67.62;101174.66;6278933;22;45463;-89
2021/06/26 16:52:12;;;;;;;;;14.00;12.67;;;;;22.31;67.85;101171.19;6279632;22;45137;-88
2021/06/26 16:54:40;;;;;;;;;14.33;14.00;;;;;22.35;67.00;101178.22;6251716;22;45390;-88
2021/06/26 16:57:06;;;;;;;;;11.67;11.33;;;;;22.30;67.43;101172.97;6277858;22;45524;-83
2021/06/26 16:59:31;;;;;;;;;12.33;11.67;;;;;22.37;65.21;101179.06;6273542;22;45310;-83
2021/06/26 17:01:57;;;;;;;;;15.00;12.33;;;;;22.37;66.03;101187.09;6275068;22;45356;-82
2021/06/26 17:04:22;;;;;;;;;13.67;12.67;;;;;22.36;66.23;101176.44;6275116;22;45259;-82
2021/06/26 17:06:48;;;;;;;;;14.67;12.67;;;;;22.36;66.24;101181.78;6247426;22;46275;-81
2021/06/26 17:09:14;;;;;;;;;17.00;13.33;;;;;22.33;66.27;101178.28;6275287;22;45389;-81
2021/06/26 17:11:40;;;;;;;;;17.33;12.33;;;;;22.33;65.53;101183.63;6275724;22;45257;-82
2021/06/26 17:14:05;;;;;;;;;20.33;15.00;;;;;22.31;65.73;101174.75;6276648;22;45248;-85
2021/06/26 17:16:31;;;;;;;;;16.67;14.00;;;;;22.31;65.49;101174.75;6275246;22;46031;-81
2021/06/26 17:18:57;;;;;;;;;13.33;11.33;;;;;22.26;64.62;101165.94;6274949;22;45121;-82
2021/06/26 17:21:23;;;;;;;;;19.33;15.00;;;;;22.24;65.28;101175.81;6247851;22;45192;-83